Time;durP1;ratioP1;P1;durP2;ratioP2;P2;SDS_P1;SDS_P2;PMS_P1;PMS_P2;Temp;Humidity;BMP_temperature;BMP_pressure;BME280_temperature;BME280_humidity;BME280_pressure;Samples;Min_cycle;Max_cycle;Signal;HPM_P1;HPM_P2
2021/12/31 00:01:31;;;;;;;14.73;8.40;;;10.10;99.90;;;;;;4994911;28;20506;-87
2021/12/31 00:03:57;;;;;;;18.85;9.73;;;10.10;99.90;;;;;;4963264;28;20037;-85
2021/12/31 00:06:23;;;;;;;19.67;9.98;;;10.10;99.90;;;;;;4963342;28;20092;-86
2021/12/31 00:08:48;;;;;;;19.20;9.23;;;10.10;99.90;;;;;;4994222;28;20038;-86
2021/12/31 00:11:14;;;;;;;21.38;9.43;;;10.00;99.90;;;;;;4963269;28;20482;-86
2021/12/31 00:13:40;;;;;;;23.13;10.32;;;10.00;99.90;;;;;;4963056;28;20034;-86
2021/12/31 00:16:05;;;;;;;18.42;10.00;;;10.00;99.90;;;;;;4979360;28;20029;-86
2021/12/31 00:18:31;;;;;;;19.90;9.93;;;10.00;99.90;;;;;;4979269;28;20058;-86
2021/12/31 00:20:57;;;;;;;15.25;9.98;;;10.00;99.90;;;;;;4979220;28;20030;-87
2021/12/31 00:23:27;;;;;;;22.40;11.15;;;10.00;99.90;;;;;;4962701;28;20085;-86
2021/12/31 00:25:53;;;;;;;23.50;10.65;;;10.00;99.90;;;;;;4979090;28;20034;-86
2021/12/31 00:28:19;;;;;;;24.13;12.07;;;10.00;99.90;;;;;;4978942;28;20049;-85
2021/12/31 00:30:51;;;;;;;19.75;11.40;;;10.00;99.90;;;;;;4962757;28;20042;-86
2021/12/31 00:33:16;;;;;;;22.20;11.80;;;10.00;99.90;;;;;;4962694;28;20030;-86
2021/12/31 00:35:42;;;;;;;19.90;12.65;;;10.00;99.90;;;;;;4978878;28;20085;-86
2021/12/31 00:38:08;;;;;;;31.08;13.23;;;10.00;99.90;;;;;;4962486;28;20125;-86
2021/12/31 00:40:34;;;;;;;27.58;12.15;;;10.10;99.90;;;;;;4978828;28;20550;-86
2021/12/31 00:43:00;;;;;;;28.08;13.02;;;10.00;99.90;;;;;;4978671;28;20038;-86
2021/12/31 00:45:26;;;;;;;30.90;13.20;;;10.00;99.90;;;;;;4979111;28;20482;-86
2021/12/31 00:47:51;;;;;;;38.38;14.32;;;10.00;99.90;;;;;;4994773;28;20038;-87
2021/12/31 00:50:17;;;;;;;30.63;15.15;;;10.00;99.90;;;;;;4978149;28;20768;-87
2021/12/31 00:52:43;;;;;;;25.38;14.57;;;10.00;99.90;;;;;;4978645;28;20034;-87
2021/12/31 00:55:10;;;;;;;31.05;12.88;;;10.00;99.90;;;;;;4978365;28;20026;-87
2021/12/31 00:57:37;;;;;;;36.17;15.02;;;10.00;99.90;;;;;;4978631;28;20041;-87
2021/12/31 01:00:05;;;;;;;35.97;14.15;;;10.00;99.90;;;;;;4994625;28;20061;-87
2021/12/31 01:02:31;;;;;;;31.17;14.43;;;10.00;99.90;;;;;;4994783;28;20030;-87
2021/12/31 01:04:57;;;;;;;31.67;14.63;;;10.00;99.90;;;;;;4978183;28;20500;-87
2021/12/31 01:07:23;;;;;;;33.70;15.00;;;10.00;99.90;;;;;;4978658;28;20065;-87
2021/12/31 01:09:48;;;;;;;34.10;15.23;;;10.00;99.90;;;;;;4978273;28;20030;-87
2021/12/31 01:12:14;;;;;;;35.13;15.75;;;10.00;99.90;;;;;;4978580;28;20036;-87
2021/12/31 01:14:55;;;;;;;42.67;16.17;;;10.00;99.90;;;;;;4977715;28;20557;-87
2021/12/31 01:17:40;;;;;;;28.02;15.30;;;10.00;99.90;;;;;;4977811;28;20064;-88
2021/12/31 01:20:06;;;;;;;35.85;15.20;;;10.00;99.90;;;;;;4977922;28;20034;-88
2021/12/31 01:22:33;;;;;;;34.08;15.63;;;10.00;99.90;;;;;;4977903;28;20034;-87
2021/12/31 01:25:00;;;;;;;32.47;15.65;;;10.00;99.90;;;;;;4978108;28;20034;-88
2021/12/31 01:27:26;;;;;;;33.05;16.23;;;9.90;99.90;;;;;;4978383;28;20046;-86
2021/12/31 01:29:52;;;;;;;41.78;17.00;;;9.90;99.90;;;;;;4962088;28;20030;-88
2021/12/31 01:32:18;;;;;;;33.47;15.98;;;9.90;99.90;;;;;;4977873;28;20030;-87
2021/12/31 01:34:44;;;;;;;33.35;15.60;;;9.90;99.90;;;;;;4977973;28;20080;-87
2021/12/31 01:37:10;;;;;;;30.27;15.98;;;9.80;99.90;;;;;;4977996;28;20037;-87
2021/12/31 01:39:36;;;;;;;30.48;17.45;;;9.90;99.90;;;;;;4978244;28;20518;-87
2021/12/31 01:42:06;;;;;;;39.53;18.00;;;9.80;99.90;;;;;;4993859;28;20038;-88
2021/12/31 01:44:38;;;;;;;29.77;17.08;;;9.80;99.90;;;;;;4977690;28;20041;-87
2021/12/31 01:47:11;;;;;;;40.05;18.83;;;9.80;99.90;;;;;;4977647;28;20086;-88
2021/12/31 01:49:40;;;;;;;46.70;19.38;;;9.80;99.90;;;;;;4977729;28;20038;-87
2021/12/31 01:52:08;;;;;;;43.40;18.73;;;9.80;99.90;;;;;;4977234;28;20030;-87
2021/12/31 01:54:35;;;;;;;43.22;19.58;;;9.80;99.90;;;;;;4977256;28;20447;-87
2021/12/31 01:57:04;;;;;;;40.95;20.30;;;9.80;99.90;;;;;;4977552;28;20030;-87
2021/12/31 01:59:31;;;;;;;38.40;19.08;;;9.90;99.90;;;;;;4977371;28;20041;-87
2021/12/31 02:01:58;;;;;;;50.90;19.48;;;9.80;99.90;;;;;;4961661;28;20041;-87
2021/12/31 02:04:23;;;;;;;36.08;18.27;;;9.80;99.90;;;;;;4993535;28;20034;-87
2021/12/31 02:06:49;;;;;;;34.60;18.30;;;9.80;99.90;;;;;;4977792;28;20560;-87
2021/12/31 02:09:15;;;;;;;33.00;18.65;;;9.80;99.90;;;;;;4977370;28;20034;-88
2021/12/31 02:11:41;;;;;;;40.80;18.33;;;9.90;99.90;;;;;;4977327;28;20037;-87
2021/12/31 02:14:08;;;;;;;44.05;19.75;;;9.90;99.90;;;;;;4976896;28;20034;-87
2021/12/31 02:16:34;;;;;;;43.25;18.85;;;9.90;99.90;;;;;;4977635;28;20495;-87
2021/12/31 02:19:14;;;;;;;38.58;19.52;;;9.90;99.90;;;;;;4977345;28;20069;-87
2021/12/31 02:21:44;;;;;;;34.97;18.55;;;9.90;99.90;;;;;;4961707;28;20030;-87
2021/12/31 02:24:12;;;;;;;45.65;20.13;;;9.90;99.90;;;;;;4993316;28;20498;-88
2021/12/31 02:26:37;;;;;;;38.72;19.50;;;9.80;99.90;;;;;;4977439;28;20112;-87
2021/12/31 02:29:03;;;;;;;42.00;19.95;;;9.80;99.90;;;;;;4976994;28;20070;-87
2021/12/31 02:31:30;;;;;;;45.28;18.38;;;9.70;99.90;;;;;;4976527;28;20041;-87
2021/12/31 02:33:56;;;;;;;41.70;18.92;;;9.70;99.90;;;;;;4976929;28;20121;-87
2021/12/31 02:36:22;;;;;;;38.00;18.27;;;9.60;99.90;;;;;;4976893;28;20070;-87
2021/12/31 02:38:54;;;;;;;41.13;18.52;;;9.60;99.90;;;;;;4977126;28;20034;-87
2021/12/31 02:41:23;;;;;;;41.47;18.52;;;9.50;99.90;;;;;;4977113;28;20669;-87
2021/12/31 02:43:49;;;;;;;34.55;17.75;;;9.40;99.90;;;;;;4976952;28;20036;-88
2021/12/31 02:46:15;;;;;;;34.88;16.48;;;9.30;99.90;;;;;;4977199;28;20113;-87
2021/12/31 02:48:41;;;;;;;38.28;17.30;;;9.30;99.90;;;;;;4960392;28;20061;-87
2021/12/31 02:51:06;;;;;;;37.55;19.05;;;9.30;99.90;;;;;;4976550;28;20026;-87
2021/12/31 02:53:56;;;;;;;39.92;20.52;;;9.20;99.90;;;;;;4976670;28;20026;-87
2021/12/31 02:56:44;;;;;;;53.97;21.52;;;9.20;99.90;;;;;;4988920;28;20042;-88
2021/12/31 02:59:10;;;;;;;50.58;21.42;;;9.20;99.90;;;;;;4976380;28;20026;-87
2021/12/31 03:01:36;;;;;;;48.80;23.67;;;9.30;99.90;;;;;;4977146;28;20093;-88
2021/12/31 03:04:04;;;;;;;66.18;23.30;;;9.40;99.90;;;;;;4976855;28;20088;-87
2021/12/31 03:06:30;;;;;;;47.30;23.38;;;9.40;99.90;;;;;;4976855;28;20070;-87
2021/12/31 03:08:58;;;;;;;46.47;23.52;;;9.40;99.90;;;;;;4976868;28;20367;-87
2021/12/31 03:11:37;;;;;;;53.45;24.08;;;9.40;99.90;;;;;;4977105;28;20030;-86
2021/12/31 03:14:04;;;;;;;58.00;25.85;;;9.50;99.90;;;;;;4960667;28;20085;-88
2021/12/31 03:16:31;;;;;;;57.55;26.92;;;9.40;99.90;;;;;;4977271;28;20029;-87
2021/12/31 03:18:57;;;;;;;48.95;23.88;;;9.40;99.90;;;;;;4993258;28;20065;-87
2021/12/31 03:21:23;;;;;;;54.08;24.05;;;9.30;99.90;;;;;;4992916;28;20137;-87
2021/12/31 03:23:52;;;;;;;61.72;26.15;;;9.40;99.90;;;;;;4976754;28;20574;-88
2021/12/31 03:26:19;;;;;;;59.42;26.38;;;9.40;99.90;;;;;;4960748;28;20030;-87
2021/12/31 03:28:45;;;;;;;56.03;26.35;;;9.40;99.90;;;;;;4993023;28;20038;-87
2021/12/31 03:31:10;;;;;;;57.72;24.23;;;9.40;99.90;;;;;;4976724;28;20030;-88
2021/12/31 03:33:36;;;;;;;64.25;26.58;;;9.30;99.90;;;;;;4976530;28;20027;-88
2021/12/31 03:36:02;;;;;;;54.00;24.10;;;9.40;99.90;;;;;;4976539;28;20030;-87
2021/12/31 03:38:28;;;;;;;54.13;24.80;;;9.40;99.90;;;;;;4976877;28;20035;-88
2021/12/31 03:40:53;;;;;;;54.38;22.42;;;9.40;99.90;;;;;;4976421;28;20444;-87
2021/12/31 03:43:19;;;;;;;58.03;24.35;;;9.40;99.90;;;;;;4978916;28;20057;-88
2021/12/31 03:45:46;;;;;;;46.13;23.25;;;9.40;99.90;;;;;;4964399;28;20037;-87
2021/12/31 03:48:12;;;;;;;56.78;25.25;;;9.40;99.90;;;;;;4980031;28;20486;-87
2021/12/31 03:50:38;;;;;;;59.90;24.17;;;9.40;99.90;;;;;;4979671;28;20097;-87
2021/12/31 03:53:04;;;;;;;51.38;28.38;;;9.40;99.90;;;;;;4979966;28;20030;-87
2021/12/31 03:55:45;;;;;;;53.20;23.35;;;9.40;99.90;;;;;;4979826;28;20033;-88
2021/12/31 03:58:11;;;;;;;46.17;21.63;;;9.40;99.90;;;;;;4980181;28;20030;-87
2021/12/31 04:00:37;;;;;;;38.75;21.50;;;9.40;99.90;;;;;;4996038;28;20030;-88
2021/12/31 04:03:08;;;;;;;43.47;22.30;;;9.40;99.90;;;;;;4980081;28;20475;-88
2021/12/31 04:05:55;;;;;;;43.58;20.83;;;9.40;99.90;;;;;;4979533;28;20133;-87
2021/12/31 04:08:21;;;;;;;55.58;27.83;;;9.40;99.90;;;;;;4979437;28;20042;-88
2021/12/31 04:10:47;;;;;;;44.88;19.83;;;9.40;99.90;;;;;;4979221;28;20029;-88
2021/12/31 04:13:13;;;;;;;47.55;19.75;;;9.40;99.90;;;;;;4979286;28;20049;-88
2021/12/31 04:15:39;;;;;;;34.75;16.65;;;9.30;99.90;;;;;;4963580;28;20031;-87
2021/12/31 04:18:05;;;;;;;30.08;15.50;;;9.40;99.90;;;;;;4963634;28;20188;-88
2021/12/31 04:20:40;;;;;;;29.77;15.70;;;9.30;99.90;;;;;;4979420;28;20109;-86
2021/12/31 04:23:13;;;;;;;21.63;13.27;;;9.30;99.90;;;;;;4979412;28;20037;-87
2021/12/31 04:25:39;;;;;;;24.08;12.90;;;9.30;99.90;;;;;;4979207;28;20034;-87
2021/12/31 04:28:05;;;;;;;21.63;10.00;;;9.30;99.90;;;;;;4963058;28;20053;-87
2021/12/31 04:30:31;;;;;;;26.35;11.98;;;9.30;99.90;;;;;;4978829;28;20041;-87
2021/12/31 04:32:58;;;;;;;16.10;9.82;;;9.30;99.90;;;;;;4979290;28;20386;-87
2021/12/31 04:35:24;;;;;;;21.08;8.80;;;9.30;99.90;;;;;;4963241;28;20556;-88
2021/12/31 04:37:50;;;;;;;18.42;9.48;;;9.20;99.90;;;;;;4963289;28;20026;-87
2021/12/31 04:40:15;;;;;;;17.92;8.02;;;9.30;99.90;;;;;;4962809;28;20045;-87
2021/12/31 04:42:46;;;;;;;13.35;7.35;;;9.30;99.90;;;;;;4995211;28;20030;-88
2021/12/31 04:45:12;;;;;;;15.38;7.65;;;9.30;99.90;;;;;;4963057;28;20034;-87
2021/12/31 04:47:39;;;;;;;14.65;7.85;;;9.30;99.90;;;;;;4978879;28;20131;-88
2021/12/31 04:50:06;;;;;;;14.73;7.50;;;9.30;99.90;;;;;;4962611;28;20034;-88
2021/12/31 04:52:32;;;;;;;14.63;7.40;;;9.20;99.90;;;;;;4978721;28;20030;-88
2021/12/31 04:54:57;;;;;;;26.75;16.67;;;9.20;99.90;;;;;;4961994;28;20073;-87
2021/12/31 04:57:25;;;;;;;261.73;107.43;;;9.30;99.90;;;;;;4978923;28;20030;-87
2021/12/31 04:59:51;;;;;;;39.97;17.90;;;9.30;99.90;;;;;;4978819;28;20517;-88
2021/12/31 05:05:43;;;;;;;12.52;7.72;;;9.30;99.90;;;;;;4994673;28;20038;-87
2021/12/31 05:08:09;;;;;;;18.00;7.72;;;9.30;99.90;;;;;;4962298;28;20044;-87
2021/12/31 05:10:35;;;;;;;14.75;7.60;;;9.20;99.90;;;;;;4961657;28;20038;-87
2021/12/31 05:13:03;;;;;;;18.83;7.72;;;9.30;99.90;;;;;;4962245;28;20030;-88
2021/12/31 05:15:34;;;;;;;15.10;8.32;;;9.30;99.90;;;;;;4994316;28;20101;-87
2021/12/31 05:18:01;;;;;;;17.38;9.05;;;9.30;99.90;;;;;;4962297;28;20117;-87
2021/12/31 05:20:27;;;;;;;23.92;11.10;;;9.30;99.90;;;;;;4962164;28;20038;-87
2021/12/31 05:22:53;;;;;;;29.85;13.20;;;9.30;99.90;;;;;;4995926;28;20038;-88
2021/12/31 05:25:19;;;;;;;30.02;15.27;;;9.20;99.90;;;;;;4977609;28;20034;-87
2021/12/31 05:27:45;;;;;;;38.22;15.13;;;9.20;99.90;;;;;;4978249;28;20045;-88
2021/12/31 05:30:11;;;;;;;28.10;13.30;;;9.20;99.90;;;;;;4978162;28;20490;-88
2021/12/31 05:32:43;;;;;;;27.35;14.40;;;9.20;99.90;;;;;;4977917;28;20023;-87
2021/12/31 05:35:08;;;;;;;29.95;14.77;;;9.20;99.90;;;;;;4978242;28;20034;-87
2021/12/31 05:37:34;;;;;;;36.08;17.98;;;9.20;99.90;;;;;;4978095;28;20034;-87
2021/12/31 05:40:00;;;;;;;45.38;19.85;;;9.10;99.90;;;;;;4977826;28;20478;-87
2021/12/31 05:42:25;;;;;;;55.10;19.85;;;9.20;99.90;;;;;;4978030;28;20034;-87
2021/12/31 05:44:51;;;;;;;41.40;20.85;;;9.20;99.90;;;;;;4977812;28;20026;-87
2021/12/31 05:47:17;;;;;;;41.90;21.10;;;9.10;99.90;;;;;;4977882;28;20037;-87
2021/12/31 05:49:43;;;;;;;46.70;21.05;;;9.10;99.90;;;;;;4977853;28;20073;-87
2021/12/31 05:52:08;;;;;;;40.50;22.27;;;9.10;99.90;;;;;;4961638;28;20066;-88
2021/12/31 05:54:34;;;;;;;44.17;20.73;;;9.10;99.90;;;;;;4977590;28;20038;-87
2021/12/31 05:57:00;;;;;;;49.15;22.45;;;9.10;99.90;;;;;;4980549;28;20030;-86
2021/12/31 05:59:25;;;;;;;56.15;23.42;;;9.10;99.90;;;;;;4980402;28;20045;-87
2021/12/31 06:01:51;;;;;;;44.60;21.73;;;9.10;99.90;;;;;;4979302;28;20038;-87
2021/12/31 06:04:17;;;;;;;62.08;24.10;;;9.00;99.90;;;;;;4979842;28;20045;-88
2021/12/31 06:06:44;;;;;;;55.95;25.48;;;9.00;99.90;;;;;;4979153;28;20176;-87
2021/12/31 06:09:12;;;;;;;50.00;23.83;;;9.00;99.90;;;;;;4979423;28;20045;-87
2021/12/31 06:11:42;;;;;;;49.75;22.08;;;9.00;99.90;;;;;;4997385;28;20031;-87
2021/12/31 06:14:12;;;;;;;56.42;23.80;;;9.00;99.90;;;;;;4995141;28;20129;-87
2021/12/31 06:16:42;;;;;;;50.53;23.85;;;9.00;99.90;;;;;;4979181;28;20455;-88
2021/12/31 06:19:12;;;;;;;53.40;24.88;;;9.00;99.90;;;;;;4978791;28;20038;-85
2021/12/31 06:21:39;;;;;;;58.42;24.85;;;8.90;99.90;;;;;;4979309;28;20112;-85
2021/12/31 06:24:06;;;;;;;67.50;30.60;;;8.90;99.90;;;;;;4979428;28;20044;-87
2021/12/31 06:26:32;;;;;;;74.00;32.60;;;8.90;99.90;;;;;;4978933;28;20030;-85
2021/12/31 06:29:16;;;;;;;63.35;27.50;;;8.90;99.90;;;;;;4978817;28;20088;-85
2021/12/31 06:31:42;;;;;;;65.57;27.33;;;8.90;99.90;;;;;;4978705;28;20030;-86
2021/12/31 06:34:14;;;;;;;58.85;27.08;;;9.00;99.90;;;;;;4978643;28;20606;-86
2021/12/31 06:36:39;;;;;;;56.80;28.08;;;9.00;99.90;;;;;;4979358;28;20081;-85
2021/12/31 06:39:05;;;;;;;66.00;28.17;;;9.00;99.90;;;;;;4962779;28;20070;-86
2021/12/31 06:41:32;;;;;;;61.17;28.23;;;8.90;99.90;;;;;;4978268;28;20033;-86
2021/12/31 06:43:58;;;;;;;59.55;30.42;;;9.00;99.90;;;;;;4962746;28;20117;-86
2021/12/31 06:46:23;;;;;;;70.22;30.25;;;8.90;99.90;;;;;;4977921;28;20136;-84
2021/12/31 06:48:49;;;;;;;59.40;29.23;;;8.90;99.90;;;;;;4977139;28;20031;-86
2021/12/31 06:51:23;;;;;;;54.72;28.13;;;8.90;99.90;;;;;;4977195;28;20070;-86
2021/12/31 06:53:49;;;;;;;59.47;28.38;;;8.90;99.90;;;;;;4977548;28;20046;-86
2021/12/31 06:56:14;;;;;;;62.78;28.83;;;8.90;99.90;;;;;;4977279;28;20049;-86
2021/12/31 06:58:40;;;;;;;49.42;27.38;;;8.90;99.90;;;;;;4977494;28;20463;-86
2021/12/31 07:01:06;;;;;;;53.78;28.00;;;8.90;99.90;;;;;;4977191;28;20129;-86
2021/12/31 07:03:32;;;;;;;64.28;29.20;;;8.90;99.90;;;;;;4977005;28;20598;-86
2021/12/31 07:05:58;;;;;;;55.58;27.33;;;8.90;99.90;;;;;;4977371;28;20475;-86
2021/12/31 07:08:23;;;;;;;55.42;25.92;;;8.90;99.90;;;;;;4961554;28;20023;-86
2021/12/31 07:10:49;;;;;;;57.90;28.67;;;8.90;99.90;;;;;;4960863;28;20037;-86
2021/12/31 07:13:15;;;;;;;56.28;28.35;;;8.90;99.90;;;;;;4961011;28;20511;-85
2021/12/31 07:19:28;;;;;;;64.07;27.70;;;8.80;99.90;;;;;;4998332;28;20132;-87
2021/12/31 07:21:54;;;;;;;60.75;27.92;;;8.80;99.90;;;;;;4980594;28;20026;-87
2021/12/31 07:24:20;;;;;;;58.45;29.35;;;8.80;99.90;;;;;;4964377;28;20031;-86
2021/12/31 07:26:45;;;;;;;75.25;30.50;;;8.70;99.90;;;;;;4980009;28;20030;-86
2021/12/31 07:29:11;;;;;;;65.10;30.50;;;8.70;99.90;;;;;;4980144;28;20030;-85
2021/12/31 07:31:37;;;;;;;66.20;30.92;;;8.50;99.90;;;;;;4979821;28;20037;-86
2021/12/31 07:34:04;;;;;;;77.38;31.88;;;8.50;99.90;;;;;;4979521;28;20036;-85
2021/12/31 07:36:29;;;;;;;73.60;30.10;;;8.50;99.90;;;;;;4980336;28;20089;-85
2021/12/31 07:39:05;;;;;;;74.13;29.20;;;8.40;99.90;;;;;;4980062;28;20469;-85
2021/12/31 07:41:31;;;;;;;63.20;27.95;;;8.30;99.90;;;;;;4997055;28;20497;-85
2021/12/31 07:43:57;;;;;;;79.30;31.83;;;8.30;99.90;;;;;;4979599;28;20037;-85
2021/12/31 07:46:23;;;;;;;79.97;32.40;;;8.40;99.90;;;;;;4979518;28;20050;-86
2021/12/31 07:48:49;;;;;;;74.20;31.17;;;8.30;99.90;;;;;;4979446;28;20137;-86
2021/12/31 07:51:14;;;;;;;69.80;32.00;;;8.30;99.90;;;;;;4979635;28;20078;-85
2021/12/31 07:53:40;;;;;;;70.65;29.88;;;8.30;99.90;;;;;;4963542;28;20512;-85
2021/12/31 07:56:09;;;;;;;80.40;33.33;;;8.20;99.90;;;;;;4980211;28;20436;-85
2021/12/31 07:58:35;;;;;;;83.20;34.85;;;8.20;99.90;;;;;;4980101;28;20101;-86
2021/12/31 08:01:00;;;;;;;86.88;35.30;;;8.20;99.90;;;;;;4979812;28;20034;-84
2021/12/31 08:03:26;;;;;;;87.65;35.20;;;8.20;99.90;;;;;;4979614;28;20528;-85
2021/12/31 08:05:52;;;;;;;92.20;35.45;;;8.20;99.90;;;;;;4981632;28;20133;-85
2021/12/31 08:08:18;;;;;;;83.97;35.72;;;8.20;99.90;;;;;;4983280;28;20520;-85
2021/12/31 08:10:44;;;;;;;90.13;34.83;;;8.20;99.90;;;;;;4979983;28;20034;-85
2021/12/31 08:13:11;;;;;;;102.03;39.45;;;8.20;99.90;;;;;;4979327;28;20030;-85
2021/12/31 08:15:38;;;;;;;108.45;39.47;;;8.20;99.90;;;;;;4963164;28;20027;-86
2021/12/31 08:18:03;;;;;;;215.52;76.07;;;8.20;99.90;;;;;;4979039;28;20030;-85
2021/12/31 08:20:29;;;;;;;103.72;41.88;;;8.30;99.90;;;;;;4979510;28;20509;-85
2021/12/31 08:22:55;;;;;;;100.47;39.03;;;8.20;99.90;;;;;;4980996;28;20042;-85
2021/12/31 08:25:21;;;;;;;104.68;39.78;;;8.20;99.90;;;;;;4981328;28;20046;-86
2021/12/31 08:27:47;;;;;;;77.55;34.58;;;8.30;99.90;;;;;;4979672;28;20084;-86
2021/12/31 08:30:13;;;;;;;98.78;36.50;;;8.20;99.90;;;;;;4979607;28;20026;-86
2021/12/31 08:32:39;;;;;;;92.38;36.78;;;8.20;99.90;;;;;;4979827;28;20125;-86
2021/12/31 08:35:06;;;;;;;87.25;36.15;;;8.10;99.90;;;;;;4979620;28;20045;-86
2021/12/31 08:37:32;;;;;;;103.20;35.75;;;8.30;99.90;;;;;;4995155;28;20040;-85
2021/12/31 08:39:57;;;;;;;88.20;33.42;;;8.30;99.90;;;;;;4985289;28;20042;-86
2021/12/31 08:42:24;;;;;;;70.55;30.10;;;8.40;99.90;;;;;;4981198;28;20038;-85
2021/12/31 08:44:51;;;;;;;85.72;34.20;;;8.50;99.90;;;;;;4996052;28;20482;-86
2021/12/31 08:47:16;;;;;;;79.55;32.10;;;8.60;99.90;;;;;;4978709;28;20121;-85
2021/12/31 08:49:43;;;;;;;72.90;29.00;;;8.60;99.90;;;;;;4978708;28;20125;-85
2021/12/31 08:52:09;;;;;;;59.25;25.60;;;8.60;99.90;;;;;;4964157;28;20049;-85
2021/12/31 08:54:36;;;;;;;52.42;24.20;;;8.60;99.90;;;;;;4978184;28;20038;-86
2021/12/31 08:57:02;;;;;;;53.63;21.45;;;8.60;99.90;;;;;;4978511;28;20053;-85
2021/12/31 08:59:28;;;;;;;43.55;19.10;;;8.60;99.90;;;;;;4978202;28;20027;-86
2021/12/31 09:01:53;;;;;;;38.20;18.60;;;8.60;99.90;;;;;;4978148;28;20038;-86
2021/12/31 09:04:19;;;;;;;42.75;19.35;;;8.50;99.90;;;;;;4978180;28;20483;-85
2021/12/31 09:06:45;;;;;;;38.67;18.42;;;8.60;99.90;;;;;;4995999;28;20042;-86
2021/12/31 09:09:11;;;;;;;33.45;15.68;;;8.60;99.90;;;;;;4978403;28;20045;-86
2021/12/31 09:11:36;;;;;;;31.25;13.50;;;8.70;99.90;;;;;;4978423;28;20030;-85
2021/12/31 09:14:02;;;;;;;35.50;13.80;;;8.70;99.90;;;;;;4978350;28;20065;-85
2021/12/31 09:16:28;;;;;;;29.55;13.60;;;8.70;99.90;;;;;;4978320;28;20032;-85
2021/12/31 09:18:54;;;;;;;28.60;13.05;;;8.70;99.90;;;;;;4995602;28;20554;-86
2021/12/31 09:21:22;;;;;;;29.05;11.35;;;8.80;99.90;;;;;;4978160;28;20042;-85
2021/12/31 09:23:48;;;;;;;31.20;12.73;;;8.80;99.90;;;;;;4978075;28;20030;-85
2021/12/31 09:26:17;;;;;;;28.45;11.75;;;8.90;99.90;;;;;;4978233;28;20042;-86
2021/12/31 09:28:43;;;;;;;88.40;39.42;;;8.90;99.90;;;;;;4980111;28;20038;-86
2021/12/31 09:31:10;;;;;;;28.20;13.57;;;8.90;99.90;;;;;;4977897;28;20129;-86
2021/12/31 09:33:36;;;;;;;26.77;12.13;;;8.90;99.90;;;;;;4977626;28;20035;-85
2021/12/31 09:36:02;;;;;;;23.52;9.57;;;8.90;99.90;;;;;;4977661;28;20030;-85
2021/12/31 09:38:28;;;;;;;19.08;9.00;;;9.00;99.90;;;;;;4961884;28;20385;-86
2021/12/31 09:40:54;;;;;;;19.55;9.55;;;9.00;99.90;;;;;;4961422;28;20088;-86
2021/12/31 09:43:20;;;;;;;22.20;11.48;;;9.10;99.90;;;;;;4961862;28;20031;-86
2021/12/31 09:45:49;;;;;;;30.75;9.95;;;9.10;99.90;;;;;;4978123;28;20042;-86
2021/12/31 09:48:19;;;;;;;16.35;8.73;;;9.30;99.90;;;;;;4978362;28;20053;-85
2021/12/31 09:50:48;;;;;;;15.57;7.45;;;9.60;99.90;;;;;;5010378;28;20461;-85
2021/12/31 09:53:15;;;;;;;15.40;7.40;;;10.00;99.90;;;;;;4961743;28;20022;-86
2021/12/31 09:55:46;;;;;;;10.32;5.18;;;10.50;99.90;;;;;;4961734;28;20093;-86
2021/12/31 09:58:15;;;;;;;11.98;4.53;;;10.80;99.90;;;;;;4978309;28;20030;-85
2021/12/31 10:00:48;;;;;;;12.98;9.80;;;11.20;99.90;;;;;;4993975;28;20093;-86
2021/12/31 10:03:25;;;;;;;12.95;6.18;;;11.50;99.90;;;;;;4977786;28;20089;-85
2021/12/31 10:05:57;;;;;;;22.27;12.25;;;11.70;99.90;;;;;;5010330;28;20093;-86
2021/12/31 10:08:28;;;;;;;10.07;4.20;;;11.90;99.90;;;;;;4977686;28;20394;-86
2021/12/31 10:11:18;;;;;;;6.90;3.42;;;12.40;99.90;;;;;;4977990;28;20038;-86
2021/12/31 10:13:55;;;;;;;7.57;3.20;;;12.90;99.90;;;;;;5009901;28;20030;-85
2021/12/31 10:16:41;;;;;;;7.65;4.90;;;12.90;99.90;;;;;;4961902;28;20030;-86
2021/12/31 10:19:15;;;;;;;4.85;2.60;;;13.10;99.90;;;;;;4977200;28;20030;-87
2021/12/31 10:21:46;;;;;;;5.82;2.90;;;13.10;99.90;;;;;;4976935;28;20030;-86
2021/12/31 10:24:26;;;;;;;6.15;2.55;;;13.00;99.90;;;;;;4961482;28;20041;-86
2021/12/31 10:27:02;;;;;;;7.65;2.65;;;12.80;99.90;;;;;;4993287;28;20026;-86
2021/12/31 10:29:27;;;;;;;8.82;2.58;;;12.80;99.90;;;;;;5010547;28;20038;-86
2021/12/31 10:31:54;;;;;;;6.75;3.20;;;12.80;99.90;;;;;;4961598;28;20034;-86
2021/12/31 10:34:34;;;;;;;6.97;2.88;;;13.10;99.90;;;;;;4977530;28;20031;-86
2021/12/31 10:37:33;;;;;;;6.72;2.90;;;13.10;99.90;;;;;;4961534;28;20221;-86
2021/12/31 10:40:01;;;;;;;4.65;3.10;;;13.10;99.90;;;;;;4934990;28;20136;-87
2021/12/31 10:42:33;;;;;;;9.18;3.45;;;13.20;99.90;;;;;;4963162;28;20038;-86
2021/12/31 10:45:02;;;;;;;5.45;3.03;;;13.10;99.90;;;;;;4977125;28;20394;-87
2021/12/31 10:47:37;;;;;;;6.82;2.72;;;13.00;99.90;;;;;;4961037;28;20022;-86
2021/12/31 10:50:03;;;;;;;9.05;3.25;;;12.70;99.90;;;;;;4961199;28;20038;-86
2021/12/31 10:52:37;;;;;;;4.20;2.85;;;12.40;99.90;;;;;;4995940;28;20037;-85
2021/12/31 10:57:48;;;;;;;6.05;3.67;;;11.90;99.90;;;;;;4997421;28;20034;-86
2021/12/31 11:00:15;;;;;;;9.68;4.15;;;11.80;99.90;;;;;;4981301;28;20030;-86
2021/12/31 11:02:42;;;;;;;9.63;3.45;;;11.60;99.90;;;;;;4964816;28;20509;-86
2021/12/31 11:05:10;;;;;;;6.70;3.65;;;11.70;99.90;;;;;;4965397;28;20026;-86
2021/12/31 11:07:38;;;;;;;6.15;3.40;;;11.50;99.90;;;;;;4981125;28;20034;-87
2021/12/31 11:10:04;;;;;;;10.52;2.97;;;11.50;99.90;;;;;;4981654;28;20085;-86
2021/12/31 11:12:31;;;;;;;3.83;2.67;;;11.50;99.90;;;;;;5000291;28;20513;-86
2021/12/31 11:14:57;;;;;;;6.40;2.97;;;11.70;99.90;;;;;;4985302;28;20502;-86
2021/12/31 11:17:24;;;;;;;5.55;3.33;;;11.60;99.90;;;;;;5000467;28;20030;-86
2021/12/31 11:19:51;;;;;;;7.65;3.70;;;11.50;99.90;;;;;;4981853;28;20097;-86
2021/12/31 11:22:21;;;;;;;7.13;3.90;;;11.50;99.90;;;;;;4983757;28;20117;-86
2021/12/31 11:24:47;;;;;;;5.67;3.10;;;11.60;99.90;;;;;;4982028;28;20033;-85
2021/12/31 11:27:28;;;;;;;9.25;3.22;;;11.80;99.90;;;;;;4965716;28;20030;-85
2021/12/31 11:29:55;;;;;;;8.40;3.15;;;11.90;99.90;;;;;;4981975;28;20039;-85
2021/12/31 11:32:53;;;;;;;9.00;2.75;;;11.90;99.90;;;;;;5014360;28;20493;-87
2021/12/31 11:35:30;;;;;;;7.13;2.80;;;11.70;99.90;;;;;;4981507;28;20080;-86
2021/12/31 11:37:56;;;;;;;5.88;2.88;;;11.60;99.90;;;;;;4965867;28;20027;-85
2021/12/31 11:40:36;;;;;;;5.25;2.75;;;11.60;99.90;;;;;;4965708;28;20187;-87
2021/12/31 11:43:24;;;;;;;6.63;2.90;;;11.60;99.90;;;;;;5014935;28;20046;-85
2021/12/31 11:46:09;;;;;;;6.13;2.67;;;11.60;99.90;;;;;;4999961;28;20030;-86
2021/12/31 11:48:51;;;;;;;4.97;2.25;;;11.50;99.90;;;;;;4982806;28;20038;-87
2021/12/31 11:51:29;;;;;;;4.50;2.80;;;11.40;99.90;;;;;;4981208;28;20375;-88
2021/12/31 11:53:57;;;;;;;5.97;2.78;;;11.50;99.90;;;;;;4965122;28;20035;-85
2021/12/31 11:56:47;;;;;;;6.95;2.53;;;11.80;99.90;;;;;;4979943;28;20500;-86
2021/12/31 12:00:03;;;;;;;6.30;2.65;;;12.10;99.90;;;;;;4979969;28;20121;-86
2021/12/31 12:02:39;;;;;;;5.53;2.70;;;12.10;99.90;;;;;;4996139;28;20026;-85
2021/12/31 12:05:11;;;;;;;7.95;2.88;;;11.90;99.90;;;;;;4978296;28;20533;-86
2021/12/31 12:07:45;;;;;;;4.10;2.92;;;11.70;99.90;;;;;;4995934;28;20036;-85
2021/12/31 12:10:19;;;;;;;6.15;2.63;;;11.60;99.90;;;;;;4979552;28;20508;-85
2021/12/31 12:12:52;;;;;;;5.15;2.83;;;11.70;99.90;;;;;;4963020;28;20040;-85
2021/12/31 12:15:32;;;;;;;4.90;2.72;;;11.60;99.90;;;;;;5011540;28;20061;-85
2021/12/31 12:17:59;;;;;;;3.03;2.30;;;11.60;99.90;;;;;;4962853;28;20112;-85
2021/12/31 12:20:33;;;;;;;6.35;3.13;;;11.60;99.90;;;;;;4963553;28;20038;-85
2021/12/31 12:22:59;;;;;;;4.85;2.53;;;11.60;99.90;;;;;;4979693;28;20378;-88
2021/12/31 12:25:40;;;;;;;10.90;3.13;;;11.70;99.90;;;;;;4963072;28;20038;-87
2021/12/31 12:28:12;;;;;;;5.88;2.70;;;11.80;99.90;;;;;;4979611;28;20030;-87
2021/12/31 12:30:44;;;;;;;;;;;11.80;99.90;;;;;;4963470;28;20046;-88
2021/12/31 12:35:41;;;;;;;5.00;3.00;;;11.60;99.90;;;;;;4996877;28;19944;-87
2021/12/31 12:38:11;;;;;;;7.00;2.70;;;11.50;99.90;;;;;;4979031;28;20033;-87
2021/12/31 12:40:52;;;;;;;6.65;3.03;;;11.50;99.90;;;;;;4962894;28;20041;-87
2021/12/31 12:43:27;;;;;;;6.33;3.00;;;11.60;99.90;;;;;;4978930;28;20402;-87
2021/12/31 12:45:56;;;;;;;5.15;2.67;;;11.60;99.90;;;;;;4962902;28;20120;-87
2021/12/31 12:48:32;;;;;;;4.07;2.55;;;11.60;99.90;;;;;;5010766;28;20042;-87
2021/12/31 12:50:59;;;;;;;4.80;2.88;;;11.60;99.90;;;;;;4980656;28;20042;-88
2021/12/31 12:53:28;;;;;;;4.05;2.80;;;11.60;99.90;;;;;;4962118;28;20105;-87
2021/12/31 12:56:07;;;;;;;4.97;2.60;;;11.50;99.90;;;;;;4962391;28;20443;-87
2021/12/31 12:58:39;;;;;;;9.77;3.25;;;11.50;99.90;;;;;;4977900;28;20034;-87